Terminal Aerodrome Forecast
Issued by NWS Albany, NY

Home | Current Version | Previous Version | Text Only | Print | Product List | Glossary On
Versions: 1 2 3 4 5 6 7 8 9 10 11 12 13 14 15 16
000
FTUS41 KALY 041744
TAFPOU
TAF
KPOU 041744Z 0418/0518 00000KT 6SM -RA FEW007 SCT020 OVC080
      TEMPO 0418/0419 3SM -RA BR SCT007 OVC020
     FM042000 VRB03KT P6SM VCSH BKN060 OVC090
     FM050000 00000KT P6SM SCT060
     FM050800 00000KT 3SM BR SCT005=

USA.gov is the U.S. government's official web portal to all federal, state and local government web resources and services.